sensor_id;sensor_type;location;lat;lon;timestamp;noise_LAeq;noise_LA_min;noise_LA_max;noise_LA01;noise_LA95
77361;Laerm;66427;51.798;10.954;2023-11-19T00:02:07;37.70;31.94;61.37;;
77361;Laerm;66427;51.798;10.954;2023-11-19T00:04:36;38.39;33.00;60.01;;
77361;Laerm;66427;51.798;10.954;2023-11-19T00:07:01;38.22;32.69;50.37;;
77361;Laerm;66427;51.798;10.954;2023-11-19T00:09:29;40.30;33.05;60.59;;
77361;Laerm;66427;51.798;10.954;2023-11-19T00:11:55;40.10;34.45;49.44;;
77361;Laerm;66427;51.798;10.954;2023-11-19T00:14:20;40.67;34.08;51.07;;
77361;Laerm;66427;51.798;10.954;2023-11-19T00:16:46;42.36;35.28;55.60;;
77361;Laerm;66427;51.798;10.954;2023-11-19T00:19:11;42.72;34.74;56.16;;
77361;Laerm;66427;51.798;10.954;2023-11-19T00:21:37;48.49;35.50;67.51;;
77361;Laerm;66427;51.798;10.954;2023-11-19T00:24:02;49.21;37.32;72.36;;
77361;Laerm;66427;51.798;10.954;2023-11-19T00:26:28;46.71;39.63;55.26;;
77361;Laerm;66427;51.798;10.954;2023-11-19T00:28:54;47.59;42.31;62.75;;
77361;Laerm;66427;51.798;10.954;2023-11-19T00:31:21;49.89;43.00;69.15;;
77361;Laerm;66427;51.798;10.954;2023-11-19T00:33:46;44.56;38.96;53.21;;
77361;Laerm;66427;51.798;10.954;2023-11-19T00:36:12;46.78;38.80;55.60;;
77361;Laerm;66427;51.798;10.954;2023-11-19T00:38:38;46.96;39.25;57.15;;
77361;Laerm;66427;51.798;10.954;2023-11-19T00:41:03;46.69;39.79;55.22;;
77361;Laerm;66427;51.798;10.954;2023-11-19T00:43:29;42.74;36.66;51.39;;
77361;Laerm;66427;51.798;10.954;2023-11-19T00:45:54;42.19;36.55;51.39;;
77361;Laerm;66427;51.798;10.954;2023-11-19T00:48:20;39.50;34.53;48.66;;
77361;Laerm;66427;51.798;10.954;2023-11-19T00:50:45;36.74;30.65;46.96;;
77361;Laerm;66427;51.798;10.954;2023-11-19T00:53:11;33.08;29.64;45.59;;
77361;Laerm;66427;51.798;10.954;2023-11-19T00:55:37;32.55;29.80;40.41;;
77361;Laerm;66427;51.798;10.954;2023-11-19T00:58:02;42.13;30.66;67.84;;
77361;Laerm;66427;51.798;10.954;2023-11-19T01:00:28;45.74;31.74;67.26;;
77361;Laerm;66427;51.798;10.954;2023-11-19T01:02:54;54.80;31.28;70.34;;
77361;Laerm;66427;51.798;10.954;2023-11-19T01:05:20;39.49;31.57;53.77;;
77361;Laerm;66427;51.798;10.954;2023-11-19T01:07:49;47.74;31.20;63.94;;
77361;Laerm;66427;51.798;10.954;2023-11-19T01:10:15;35.36;31.69;45.53;;
77361;Laerm;66427;51.798;10.954;2023-11-19T01:12:43;34.01;30.11;46.65;;
77361;Laerm;66427;51.798;10.954;2023-11-19T01:15:09;32.41;30.14;42.31;;
77361;Laerm;66427;51.798;10.954;2023-11-19T01:17:36;34.34;30.95;43.93;;
77361;Laerm;66427;51.798;10.954;2023-11-19T01:20:01;33.49;29.85;42.21;;
77361;Laerm;66427;51.798;10.954;2023-11-19T01:22:27;33.49;30.26;44.75;;
77361;Laerm;66427;51.798;10.954;2023-11-19T01:24:52;32.30;29.66;43.94;;
77361;Laerm;66427;51.798;10.954;2023-11-19T01:27:19;41.51;32.97;61.40;;
77361;Laerm;66427;51.798;10.954;2023-11-19T01:29:44;34.20;30.15;49.69;;
77361;Laerm;66427;51.798;10.954;2023-11-19T01:32:10;37.61;30.26;46.75;;
77361;Laerm;66427;51.798;10.954;2023-11-19T01:34:37;33.73;29.45;43.65;;
77361;Laerm;66427;51.798;10.954;2023-11-19T01:37:03;31.60;29.33;41.12;;
77361;Laerm;66427;51.798;10.954;2023-11-19T01:39:28;32.22;29.64;43.30;;
77361;Laerm;66427;51.798;10.954;2023-11-19T01:41:53;32.35;30.18;41.65;;
77361;Laerm;66427;51.798;10.954;2023-11-19T01:44:19;36.83;30.86;48.02;;
77361;Laerm;66427;51.798;10.954;2023-11-19T01:46:45;35.71;33.08;55.66;;
77361;Laerm;66427;51.798;10.954;2023-11-19T01:49:13;39.67;33.77;55.33;;
77361;Laerm;66427;51.798;10.954;2023-11-19T01:51:39;47.74;38.01;68.60;;
77361;Laerm;66427;51.798;10.954;2023-11-19T01:54:05;43.58;37.29;62.72;;
77361;Laerm;66427;51.798;10.954;2023-11-19T01:56:31;48.81;39.02;75.61;;
77361;Laerm;66427;51.798;10.954;2023-11-19T01:58:57;44.14;38.43;58.00;;
77361;Laerm;66427;51.798;10.954;2023-11-19T02:01:22;49.16;39.74;61.87;;
77361;Laerm;66427;51.798;10.954;2023-11-19T02:03:48;51.04;41.91;63.50;;
77361;Laerm;66427;51.798;10.954;2023-11-19T02:06:14;48.31;42.43;59.27;;
77361;Laerm;66427;51.798;10.954;2023-11-19T02:08:40;51.28;43.10;61.61;;
77361;Laerm;66427;51.798;10.954;2023-11-19T02:11:05;51.33;43.95;61.00;;
77361;Laerm;66427;51.798;10.954;2023-11-19T02:13:32;51.78;45.75;61.73;;
77361;Laerm;66427;51.798;10.954;2023-11-19T02:15:58;52.91;45.85;61.52;;
77361;Laerm;66427;51.798;10.954;2023-11-19T02:18:25;54.58;48.09;61.91;;
77361;Laerm;66427;51.798;10.954;2023-11-19T02:20:55;56.42;48.71;69.57;;
77361;Laerm;66427;51.798;10.954;2023-11-19T02:23:21;54.08;47.84;66.33;;
77361;Laerm;66427;51.798;10.954;2023-11-19T02:25:47;53.61;47.93;60.89;;
77361;Laerm;66427;51.798;10.954;2023-11-19T02:28:16;54.74;49.66;60.13;;
77361;Laerm;66427;51.798;10.954;2023-11-19T02:30:42;52.28;46.95;59.95;;
77361;Laerm;66427;51.798;10.954;2023-11-19T02:33:07;54.54;48.87;63.88;;
77361;Laerm;66427;51.798;10.954;2023-11-19T02:35:33;51.35;45.42;59.81;;
77361;Laerm;66427;51.798;10.954;2023-11-19T02:37:59;50.56;45.08;58.37;;
77361;Laerm;66427;51.798;10.954;2023-11-19T02:40:25;49.97;43.45;58.02;;
77361;Laerm;66427;51.798;10.954;2023-11-19T02:42:54;50.32;45.43;63.33;;
77361;Laerm;66427;51.798;10.954;2023-11-19T02:45:22;51.11;43.62;60.43;;
77361;Laerm;66427;51.798;10.954;2023-11-19T02:47:47;48.13;43.83;62.48;;
77361;Laerm;66427;51.798;10.954;2023-11-19T02:50:13;53.24;47.55;60.04;;
77361;Laerm;66427;51.798;10.954;2023-11-19T02:52:42;51.14;46.32;58.28;;
77361;Laerm;66427;51.798;10.954;2023-11-19T02:55:08;51.11;45.93;57.64;;
77361;Laerm;66427;51.798;10.954;2023-11-19T02:57:40;53.24;47.26;64.64;;
77361;Laerm;66427;51.798;10.954;2023-11-19T03:00:14;52.03;48.89;56.64;;
77361;Laerm;66427;51.798;10.954;2023-11-19T03:02:40;51.49;46.83;59.24;;
77361;Laerm;66427;51.798;10.954;2023-11-19T03:05:13;52.83;46.14;62.64;;
77361;Laerm;66427;51.798;10.954;2023-11-19T03:07:42;52.38;49.20;57.71;;
77361;Laerm;66427;51.798;10.954;2023-11-19T03:10:09;53.00;48.81;60.96;;
77361;Laerm;66427;51.798;10.954;2023-11-19T03:12:37;51.63;46.83;58.26;;
77361;Laerm;66427;51.798;10.954;2023-11-19T03:15:03;52.00;45.87;59.52;;
77361;Laerm;66427;51.798;10.954;2023-11-19T03:17:28;51.04;45.42;60.92;;
77361;Laerm;66427;51.798;10.954;2023-11-19T03:19:53;49.47;44.39;63.00;;
77361;Laerm;66427;51.798;10.954;2023-11-19T03:22:19;49.23;44.36;55.33;;
77361;Laerm;66427;51.798;10.954;2023-11-19T03:24:46;49.61;44.02;56.85;;
77361;Laerm;66427;51.798;10.954;2023-11-19T03:27:11;49.52;45.08;57.56;;
77361;Laerm;66427;51.798;10.954;2023-11-19T03:29:37;51.68;45.88;58.99;;
77361;Laerm;66427;51.798;10.954;2023-11-19T03:32:04;51.09;45.52;59.14;;
77361;Laerm;66427;51.798;10.954;2023-11-19T03:34:29;49.91;43.77;60.92;;
77361;Laerm;66427;51.798;10.954;2023-11-19T03:36:54;49.73;43.56;57.13;;
77361;Laerm;66427;51.798;10.954;2023-11-19T03:39:21;49.15;43.34;58.52;;
77361;Laerm;66427;51.798;10.954;2023-11-19T03:41:50;50.32;43.51;58.67;;
77361;Laerm;66427;51.798;10.954;2023-11-19T03:44:15;51.06;44.46;62.08;;
77361;Laerm;66427;51.798;10.954;2023-11-19T03:46:40;48.87;43.65;60.37;;
77361;Laerm;66427;51.798;10.954;2023-11-19T03:49:06;50.03;44.12;58.91;;
77361;Laerm;66427;51.798;10.954;2023-11-19T03:51:32;50.48;44.35;58.35;;
77361;Laerm;66427;51.798;10.954;2023-11-19T03:53:57;47.48;43.83;53.91;;
77361;Laerm;66427;51.798;10.954;2023-11-19T03:56:24;49.09;44.71;59.73;;
77361;Laerm;66427;51.798;10.954;2023-11-19T03:58:49;53.41;44.48;68.94;;
77361;Laerm;66427;51.798;10.954;2023-11-19T04:01:15;48.83;43.29;60.92;;
77361;Laerm;66427;51.798;10.954;2023-11-19T04:03:40;48.00;40.05;57.43;;
77361;Laerm;66427;51.798;10.954;2023-11-19T04:06:05;48.48;42.34;55.48;;
77361;Laerm;66427;51.798;10.954;2023-11-19T04:08:31;48.03;42.73;57.20;;
77361;Laerm;66427;51.798;10.954;2023-11-19T04:10:56;47.55;41.64;55.48;;
77361;Laerm;66427;51.798;10.954;2023-11-19T04:13:22;48.56;40.61;59.29;;
77361;Laerm;66427;51.798;10.954;2023-11-19T04:15:49;45.74;40.94;54.38;;
77361;Laerm;66427;51.798;10.954;2023-11-19T04:18:15;47.02;40.76;57.12;;
77361;Laerm;66427;51.798;10.954;2023-11-19T04:20:40;50.01;41.85;64.33;;
77361;Laerm;66427;51.798;10.954;2023-11-19T04:23:07;50.55;42.86;60.72;;
77361;Laerm;66427;51.798;10.954;2023-11-19T04:25:33;50.64;45.93;61.25;;
77361;Laerm;66427;51.798;10.954;2023-11-19T04:27:58;53.50;45.30;66.50;;
77361;Laerm;66427;51.798;10.954;2023-11-19T04:30:23;51.97;45.27;65.41;;
77361;Laerm;66427;51.798;10.954;2023-11-19T04:32:49;49.63;44.89;54.79;;
77361;Laerm;66427;51.798;10.954;2023-11-19T04:35:14;46.29;41.86;52.33;;
77361;Laerm;66427;51.798;10.954;2023-11-19T04:37:41;47.95;41.90;57.75;;
77361;Laerm;66427;51.798;10.954;2023-11-19T04:40:06;47.23;41.73;55.06;;
77361;Laerm;66427;51.798;10.954;2023-11-19T04:42:32;46.21;39.46;54.96;;
77361;Laerm;66427;51.798;10.954;2023-11-19T04:44:57;44.43;38.23;53.35;;
77361;Laerm;66427;51.798;10.954;2023-11-19T04:47:23;50.39;39.67;64.78;;
77361;Laerm;66427;51.798;10.954;2023-11-19T04:49:48;50.06;42.28;59.71;;
77361;Laerm;66427;51.798;10.954;2023-11-19T04:52:13;49.45;43.16;59.21;;
77361;Laerm;66427;51.798;10.954;2023-11-19T04:54:42;53.92;42.97;68.73;;
77361;Laerm;66427;51.798;10.954;2023-11-19T04:57:08;45.17;38.95;51.82;;
77361;Laerm;66427;51.798;10.954;2023-11-19T04:59:36;50.48;41.45;66.15;;
77361;Laerm;66427;51.798;10.954;2023-11-19T05:02:02;44.97;38.79;57.47;;
77361;Laerm;66427;51.798;10.954;2023-11-19T05:04:29;43.32;37.49;56.43;;
77361;Laerm;66427;51.798;10.954;2023-11-19T05:06:54;43.71;38.77;54.84;;
77361;Laerm;66427;51.798;10.954;2023-11-19T05:09:20;45.29;39.66;56.40;;
77361;Laerm;66427;51.798;10.954;2023-11-19T05:11:45;43.80;36.09;55.67;;
77361;Laerm;66427;51.798;10.954;2023-11-19T05:14:11;40.55;36.36;48.53;;
77361;Laerm;66427;51.798;10.954;2023-11-19T05:16:39;42.51;33.77;56.72;;
77361;Laerm;66427;51.798;10.954;2023-11-19T05:19:04;42.35;34.35;51.97;;
77361;Laerm;66427;51.798;10.954;2023-11-19T05:21:30;44.43;37.17;54.69;;
77361;Laerm;66427;51.798;10.954;2023-11-19T05:23:55;43.30;38.44;50.10;;
77361;Laerm;66427;51.798;10.954;2023-11-19T05:26:23;42.73;37.79;57.46;;
77361;Laerm;66427;51.798;10.954;2023-11-19T05:28:48;43.33;38.64;50.48;;
77361;Laerm;66427;51.798;10.954;2023-11-19T05:31:16;48.30;38.09;64.96;;
77361;Laerm;66427;51.798;10.954;2023-11-19T05:33:41;45.98;39.68;55.73;;
77361;Laerm;66427;51.798;10.954;2023-11-19T05:36:06;43.36;37.56;50.38;;
77361;Laerm;66427;51.798;10.954;2023-11-19T05:38:33;44.05;37.88;52.40;;
77361;Laerm;66427;51.798;10.954;2023-11-19T05:40:59;48.15;38.67;62.36;;
77361;Laerm;66427;51.798;10.954;2023-11-19T05:43:24;52.73;36.48;69.89;;
77361;Laerm;66427;51.798;10.954;2023-11-19T05:45:49;51.53;38.81;68.48;;
77361;Laerm;66427;51.798;10.954;2023-11-19T05:48:15;46.06;37.42;55.15;;
77361;Laerm;66427;51.798;10.954;2023-11-19T05:50:41;48.49;41.63;57.21;;
77361;Laerm;66427;51.798;10.954;2023-11-19T05:53:07;47.90;42.08;55.33;;
77361;Laerm;66427;51.798;10.954;2023-11-19T05:55:35;50.06;42.16;58.77;;
77361;Laerm;66427;51.798;10.954;2023-11-19T05:58:02;51.51;42.75;61.57;;
77361;Laerm;66427;51.798;10.954;2023-11-19T06:00:29;52.77;42.08;62.28;;
77361;Laerm;66427;51.798;10.954;2023-11-19T06:02:55;48.48;41.98;55.16;;
77361;Laerm;66427;51.798;10.954;2023-11-19T06:05:21;52.27;42.56;66.28;;
77361;Laerm;66427;51.798;10.954;2023-11-19T06:07:46;52.67;41.60;65.31;;
77361;Laerm;66427;51.798;10.954;2023-11-19T06:10:12;49.17;40.04;64.72;;
77361;Laerm;66427;51.798;10.954;2023-11-19T06:12:41;46.21;39.73;59.11;;
77361;Laerm;66427;51.798;10.954;2023-11-19T06:15:07;46.84;41.32;53.70;;
77361;Laerm;66427;51.798;10.954;2023-11-19T06:17:34;47.73;39.78;59.44;;
77361;Laerm;66427;51.798;10.954;2023-11-19T06:19:59;52.40;40.11;67.55;;
77361;Laerm;66427;51.798;10.954;2023-11-19T06:22:24;47.83;40.20;58.15;;
77361;Laerm;66427;51.798;10.954;2023-11-19T06:24:50;51.63;41.05;68.10;;
77361;Laerm;66427;51.798;10.954;2023-11-19T06:27:15;44.46;39.27;53.06;;
77361;Laerm;66427;51.798;10.954;2023-11-19T06:29:41;47.99;39.72;56.50;;
77361;Laerm;66427;51.798;10.954;2023-11-19T06:32:06;48.18;41.32;55.18;;
77361;Laerm;66427;51.798;10.954;2023-11-19T06:34:33;46.15;40.41;58.57;;
77361;Laerm;66427;51.798;10.954;2023-11-19T06:36:58;53.26;40.63;69.85;;
77361;Laerm;66427;51.798;10.954;2023-11-19T06:39:24;46.88;39.57;56.99;;
77361;Laerm;66427;51.798;10.954;2023-11-19T06:41:50;45.82;38.69;57.30;;
77361;Laerm;66427;51.798;10.954;2023-11-19T06:44:15;40.37;35.80;46.34;;
77361;Laerm;66427;51.798;10.954;2023-11-19T06:46:41;42.92;35.16;51.19;;
77361;Laerm;66427;51.798;10.954;2023-11-19T06:49:06;42.43;36.61;52.82;;
77361;Laerm;66427;51.798;10.954;2023-11-19T06:51:34;44.75;37.12;67.78;;
77361;Laerm;66427;51.798;10.954;2023-11-19T06:54:00;40.02;34.23;51.35;;
77361;Laerm;66427;51.798;10.954;2023-11-19T06:56:26;39.13;34.06;48.52;;
77361;Laerm;66427;51.798;10.954;2023-11-19T06:58:52;39.54;32.26;52.82;;
77361;Laerm;66427;51.798;10.954;2023-11-19T07:01:17;39.97;34.34;53.01;;
77361;Laerm;66427;51.798;10.954;2023-11-19T07:03:46;38.79;33.19;50.19;;
77361;Laerm;66427;51.798;10.954;2023-11-19T07:06:11;44.81;34.66;62.33;;
77361;Laerm;66427;51.798;10.954;2023-11-19T07:08:38;44.64;33.37;68.07;;
77361;Laerm;66427;51.798;10.954;2023-11-19T07:11:03;39.98;33.58;56.86;;
77361;Laerm;66427;51.798;10.954;2023-11-19T07:13:29;44.06;32.77;56.36;;
77361;Laerm;66427;51.798;10.954;2023-11-19T07:15:55;54.40;37.44;72.29;;
77361;Laerm;66427;51.798;10.954;2023-11-19T07:18:21;50.89;35.47;64.05;;
77361;Laerm;66427;51.798;10.954;2023-11-19T07:20:49;37.96;33.08;53.08;;
77361;Laerm;66427;51.798;10.954;2023-11-19T07:23:15;49.77;34.42;65.84;;
77361;Laerm;66427;51.798;10.954;2023-11-19T07:25:44;39.58;33.69;54.37;;
77361;Laerm;66427;51.798;10.954;2023-11-19T07:28:12;53.49;32.54;70.58;;
77361;Laerm;66427;51.798;10.954;2023-11-19T07:30:37;51.09;31.26;67.56;;
77361;Laerm;66427;51.798;10.954;2023-11-19T07:33:03;62.19;34.33;79.96;;
77361;Laerm;66427;51.798;10.954;2023-11-19T07:35:29;55.21;34.32;69.26;;
77361;Laerm;66427;51.798;10.954;2023-11-19T07:37:56;38.09;33.48;46.63;;
77361;Laerm;66427;51.798;10.954;2023-11-19T07:40:21;43.66;34.44;55.80;;
77361;Laerm;66427;51.798;10.954;2023-11-19T07:42:47;37.73;32.13;59.25;;
77361;Laerm;66427;51.798;10.954;2023-11-19T07:45:12;45.88;32.76;66.67;;
77361;Laerm;66427;51.798;10.954;2023-11-19T07:47:38;51.36;32.97;63.65;;
77361;Laerm;66427;51.798;10.954;2023-11-19T07:50:03;48.65;34.77;64.81;;
77361;Laerm;66427;51.798;10.954;2023-11-19T07:52:29;53.70;35.19;72.28;;
77361;Laerm;66427;51.798;10.954;2023-11-19T07:54:54;51.11;34.25;64.05;;
77361;Laerm;66427;51.798;10.954;2023-11-19T07:57:20;52.18;32.89;66.61;;
77361;Laerm;66427;51.798;10.954;2023-11-19T07:59:46;36.62;33.07;47.92;;
77361;Laerm;66427;51.798;10.954;2023-11-19T08:02:12;52.93;34.23;70.69;;
77361;Laerm;66427;51.798;10.954;2023-11-19T08:04:37;54.31;34.49;71.50;;
77361;Laerm;66427;51.798;10.954;2023-11-19T08:07:10;50.97;33.35;73.43;;
77361;Laerm;66427;51.798;10.954;2023-11-19T08:09:35;45.05;33.79;72.61;;
77361;Laerm;66427;51.798;10.954;2023-11-19T08:12:00;47.32;33.34;62.42;;
77361;Laerm;66427;51.798;10.954;2023-11-19T08:14:26;38.56;31.94;55.79;;
77361;Laerm;66427;51.798;10.954;2023-11-19T08:16:51;39.53;32.63;56.74;;
77361;Laerm;66427;51.798;10.954;2023-11-19T08:19:17;50.12;31.66;65.38;;
77361;Laerm;66427;51.798;10.954;2023-11-19T08:21:42;51.61;32.26;68.86;;
77361;Laerm;66427;51.798;10.954;2023-11-19T08:24:07;45.90;31.67;61.78;;
77361;Laerm;66427;51.798;10.954;2023-11-19T08:26:33;50.52;33.31;64.81;;
77361;Laerm;66427;51.798;10.954;2023-11-19T08:28:58;51.82;33.75;67.08;;
77361;Laerm;66427;51.798;10.954;2023-11-19T08:31:24;53.45;34.47;69.16;;
77361;Laerm;66427;51.798;10.954;2023-11-19T08:33:49;58.14;37.38;73.44;;
77361;Laerm;66427;51.798;10.954;2023-11-19T08:36:15;52.85;36.97;67.94;;
77361;Laerm;66427;51.798;10.954;2023-11-19T08:38:42;54.51;32.85;67.86;;
77361;Laerm;66427;51.798;10.954;2023-11-19T08:41:07;41.06;33.24;61.11;;
77361;Laerm;66427;51.798;10.954;2023-11-19T08:43:32;46.36;34.89;58.95;;
77361;Laerm;66427;51.798;10.954;2023-11-19T08:45:58;46.48;35.47;60.61;;
77361;Laerm;66427;51.798;10.954;2023-11-19T08:48:23;55.64;37.35;69.21;;
77361;Laerm;66427;51.798;10.954;2023-11-19T08:50:49;49.61;34.41;67.02;;
77361;Laerm;66427;51.798;10.954;2023-11-19T08:53:15;51.06;36.08;66.66;;
77361;Laerm;66427;51.798;10.954;2023-11-19T08:55:40;50.52;37.35;62.66;;
77361;Laerm;66427;51.798;10.954;2023-11-19T08:58:05;48.60;39.16;61.16;;
77361;Laerm;66427;51.798;10.954;2023-11-19T09:00:31;50.66;35.42;67.35;;
77361;Laerm;66427;51.798;10.954;2023-11-19T09:02:57;49.08;35.94;64.45;;
77361;Laerm;66427;51.798;10.954;2023-11-19T09:05:23;56.73;38.51;69.48;;
77361;Laerm;66427;51.798;10.954;2023-11-19T09:07:48;45.68;38.83;67.03;;
77361;Laerm;66427;51.798;10.954;2023-11-19T09:10:15;42.68;36.98;57.36;;
77361;Laerm;66427;51.798;10.954;2023-11-19T09:12:40;44.21;37.57;55.25;;
77361;Laerm;66427;51.798;10.954;2023-11-19T09:15:05;50.12;41.33;65.84;;
77361;Laerm;66427;51.798;10.954;2023-11-19T09:17:31;58.70;44.99;72.65;;
77361;Laerm;66427;51.798;10.954;2023-11-19T09:19:57;49.61;38.36;62.69;;
77361;Laerm;66427;51.798;10.954;2023-11-19T09:22:22;54.71;40.20;67.91;;
77361;Laerm;66427;51.798;10.954;2023-11-19T09:24:47;46.54;39.37;54.34;;
77361;Laerm;66427;51.798;10.954;2023-11-19T09:27:13;49.86;38.49;64.30;;
77361;Laerm;66427;51.798;10.954;2023-11-19T09:29:38;52.21;39.35;68.46;;
77361;Laerm;66427;51.798;10.954;2023-11-19T09:32:04;46.75;39.34;62.21;;
77361;Laerm;66427;51.798;10.954;2023-11-19T09:34:29;52.42;37.53;69.15;;
77361;Laerm;66427;51.798;10.954;2023-11-19T09:36:55;52.31;37.47;65.76;;
77361;Laerm;66427;51.798;10.954;2023-11-19T09:39:20;48.59;36.68;63.60;;
77361;Laerm;66427;51.798;10.954;2023-11-19T09:41:46;48.57;35.53;64.38;;
77361;Laerm;66427;51.798;10.954;2023-11-19T09:44:12;51.81;36.48;67.03;;
77361;Laerm;66427;51.798;10.954;2023-11-19T09:46:40;51.67;35.76;70.57;;
77361;Laerm;66427;51.798;10.954;2023-11-19T09:49:06;38.92;33.57;51.09;;
77361;Laerm;66427;51.798;10.954;2023-11-19T09:51:34;53.52;36.74;65.83;;
77361;Laerm;66427;51.798;10.954;2023-11-19T09:54:00;51.66;35.66;63.89;;
77361;Laerm;66427;51.798;10.954;2023-11-19T09:56:25;46.36;35.02;62.48;;
77361;Laerm;66427;51.798;10.954;2023-11-19T09:58:52;53.71;36.73;67.76;;
77361;Laerm;66427;51.798;10.954;2023-11-19T10:01:18;55.11;36.81;72.06;;
77361;Laerm;66427;51.798;10.954;2023-11-19T10:03:43;52.00;38.58;65.21;;
77361;Laerm;66427;51.798;10.954;2023-11-19T10:06:11;45.79;38.91;59.95;;
77361;Laerm;66427;51.798;10.954;2023-11-19T10:08:37;52.25;39.91;65.82;;
77361;Laerm;66427;51.798;10.954;2023-11-19T10:11:04;42.58;36.58;54.89;;
77361;Laerm;66427;51.798;10.954;2023-11-19T10:13:30;48.71;37.70;64.64;;
77361;Laerm;66427;51.798;10.954;2023-11-19T10:15:56;53.83;39.11;70.51;;
77361;Laerm;66427;51.798;10.954;2023-11-19T10:18:25;52.38;38.75;66.00;;
77361;Laerm;66427;51.798;10.954;2023-11-19T10:20:51;51.05;40.18;66.08;;
77361;Laerm;66427;51.798;10.954;2023-11-19T10:23:16;51.45;39.23;67.14;;
77361;Laerm;66427;51.798;10.954;2023-11-19T10:25:41;49.95;35.91;65.97;;
77361;Laerm;66427;51.798;10.954;2023-11-19T10:28:07;43.60;36.46;55.77;;
77361;Laerm;66427;51.798;10.954;2023-11-19T10:30:32;53.24;36.97;65.84;;
77361;Laerm;66427;51.798;10.954;2023-11-19T10:33:11;54.42;37.87;66.82;;
77361;Laerm;66427;51.798;10.954;2023-11-19T10:35:54;52.07;37.69;69.04;;
77361;Laerm;66427;51.798;10.954;2023-11-19T10:38:22;54.21;36.78;68.61;;
77361;Laerm;66427;51.798;10.954;2023-11-19T10:40:48;54.04;37.60;68.13;;
77361;Laerm;66427;51.798;10.954;2023-11-19T10:43:13;48.14;37.20;63.31;;
77361;Laerm;66427;51.798;10.954;2023-11-19T10:45:39;45.79;38.24;59.63;;
77361;Laerm;66427;51.798;10.954;2023-11-19T10:48:05;54.35;38.58;65.62;;
77361;Laerm;66427;51.798;10.954;2023-11-19T10:50:32;53.28;40.34;68.23;;
77361;Laerm;66427;51.798;10.954;2023-11-19T10:52:58;51.62;38.97;63.83;;
77361;Laerm;66427;51.798;10.954;2023-11-19T10:55:26;50.83;37.23;65.67;;
77361;Laerm;66427;51.798;10.954;2023-11-19T10:57:52;55.36;37.64;67.47;;
77361;Laerm;66427;51.798;10.954;2023-11-19T11:00:18;51.03;37.34;67.50;;
77361;Laerm;66427;51.798;10.954;2023-11-19T11:02:45;46.87;40.34;57.01;;
77361;Laerm;66427;51.798;10.954;2023-11-19T11:05:12;48.06;39.20;68.03;;
77361;Laerm;66427;51.798;10.954;2023-11-19T11:07:39;45.60;36.66;63.72;;
77361;Laerm;66427;51.798;10.954;2023-11-19T11:10:06;51.84;34.59;68.17;;
77361;Laerm;66427;51.798;10.954;2023-11-19T11:12:34;53.79;33.34;69.57;;
77361;Laerm;66427;51.798;10.954;2023-11-19T11:15:01;48.42;34.74;63.58;;
77361;Laerm;66427;51.798;10.954;2023-11-19T11:17:28;51.96;34.65;65.83;;
77361;Laerm;66427;51.798;10.954;2023-11-19T11:19:53;46.44;35.42;60.56;;
77361;Laerm;66427;51.798;10.954;2023-11-19T11:22:19;50.31;35.60;66.69;;
77361;Laerm;66427;51.798;10.954;2023-11-19T11:24:57;54.72;38.37;66.67;;
77361;Laerm;66427;51.798;10.954;2023-11-19T11:30:05;40.63;36.11;59.84;;
77361;Laerm;66427;51.798;10.954;2023-11-19T11:37:34;49.58;35.61;65.27;;
77361;Laerm;66427;51.798;10.954;2023-11-19T11:40:02;49.94;37.89;66.95;;
77361;Laerm;66427;51.798;10.954;2023-11-19T11:42:35;48.22;37.73;61.88;;
77361;Laerm;66427;51.798;10.954;2023-11-19T11:48:00;48.66;38.28;63.75;;
77361;Laerm;66427;51.798;10.954;2023-11-19T11:50:15;50.38;36.80;67.78;;
77361;Laerm;66427;51.798;10.954;2023-11-19T11:55:24;44.66;37.64;59.15;;
77361;Laerm;66427;51.798;10.954;2023-11-19T11:57:50;49.87;37.76;64.45;;
77361;Laerm;66427;51.798;10.954;2023-11-19T12:02:56;53.72;38.98;66.23;;
77361;Laerm;66427;51.798;10.954;2023-11-19T12:05:45;53.39;39.11;67.66;;
77361;Laerm;66427;51.798;10.954;2023-11-19T12:08:12;57.28;39.23;70.30;;
77361;Laerm;66427;51.798;10.954;2023-11-19T12:10:50;48.42;39.86;60.31;;
77361;Laerm;66427;51.798;10.954;2023-11-19T12:13:20;49.43;37.76;63.16;;
77361;Laerm;66427;51.798;10.954;2023-11-19T12:18:35;51.89;40.47;67.98;;
77361;Laerm;66427;51.798;10.954;2023-11-19T12:21:09;52.18;37.42;64.63;;
77361;Laerm;66427;51.798;10.954;2023-11-19T12:23:43;43.73;37.18;56.12;;
77361;Laerm;66427;51.798;10.954;2023-11-19T12:26:34;47.99;39.47;59.85;;
77361;Laerm;66427;51.798;10.954;2023-11-19T12:29:02;49.96;37.99;65.04;;
77361;Laerm;66427;51.798;10.954;2023-11-19T12:31:32;50.72;38.37;65.52;;
77361;Laerm;66427;51.798;10.954;2023-11-19T12:34:04;55.57;38.32;74.04;;
77361;Laerm;66427;51.798;10.954;2023-11-19T12:36:35;41.88;37.43;48.72;;
77361;Laerm;66427;51.798;10.954;2023-11-19T12:39:02;51.72;38.83;67.40;;
77361;Laerm;66427;51.798;10.954;2023-11-19T12:41:29;50.80;42.35;63.96;;
77361;Laerm;66427;51.798;10.954;2023-11-19T12:44:08;45.71;39.13;58.98;;
77361;Laerm;66427;51.798;10.954;2023-11-19T12:46:34;50.27;35.84;67.06;;
77361;Laerm;66427;51.798;10.954;2023-11-19T12:48:59;41.31;36.68;49.16;;
77361;Laerm;66427;51.798;10.954;2023-11-19T12:51:30;53.18;35.90;67.39;;
77361;Laerm;66427;51.798;10.954;2023-11-19T12:53:56;50.10;36.53;64.49;;
77361;Laerm;66427;51.798;10.954;2023-11-19T12:56:23;39.69;35.12;51.81;;
77361;Laerm;66427;51.798;10.954;2023-11-19T12:58:49;51.08;37.46;64.73;;
77361;Laerm;66427;51.798;10.954;2023-11-19T13:01:16;50.24;38.82;63.19;;
77361;Laerm;66427;51.798;10.954;2023-11-19T13:03:41;53.68;39.09;63.91;;
77361;Laerm;66427;51.798;10.954;2023-11-19T13:06:08;42.86;36.84;57.06;;
77361;Laerm;66427;51.798;10.954;2023-11-19T13:08:43;39.13;34.44;51.85;;
77361;Laerm;66427;51.798;10.954;2023-11-19T13:11:09;50.22;36.64;67.42;;
77361;Laerm;66427;51.798;10.954;2023-11-19T13:16:19;54.29;38.19;73.07;;
77361;Laerm;66427;51.798;10.954;2023-11-19T13:18:44;52.97;39.49;65.54;;
77361;Laerm;66427;51.798;10.954;2023-11-19T13:21:10;53.75;39.77;67.88;;
77361;Laerm;66427;51.798;10.954;2023-11-19T13:23:35;53.34;39.24;69.25;;
77361;Laerm;66427;51.798;10.954;2023-11-19T13:26:01;48.52;39.97;67.15;;
77361;Laerm;66427;51.798;10.954;2023-11-19T13:28:26;42.43;37.51;53.25;;
77361;Laerm;66427;51.798;10.954;2023-11-19T13:30:52;52.54;37.34;65.97;;
77361;Laerm;66427;51.798;10.954;2023-11-19T13:33:18;60.43;40.10;78.46;;
77361;Laerm;66427;51.798;10.954;2023-11-19T13:35:44;53.87;37.78;70.04;;
77361;Laerm;66427;51.798;10.954;2023-11-19T13:38:09;55.12;38.24;69.20;;
77361;Laerm;66427;51.798;10.954;2023-11-19T13:40:35;52.58;38.39;65.33;;
77361;Laerm;66427;51.798;10.954;2023-11-19T13:43:00;51.18;37.17;64.67;;
77361;Laerm;66427;51.798;10.954;2023-11-19T13:45:26;50.77;36.21;66.31;;
77361;Laerm;66427;51.798;10.954;2023-11-19T13:47:51;50.98;35.57;66.76;;
77361;Laerm;66427;51.798;10.954;2023-11-19T13:50:17;39.50;35.15;51.33;;